Time;durP1;ratioP1;P1;durP2;ratioP2;P2;SDS_P1;SDS_P2;PMS_P1;PMS_P2;Temp;Humidity;BMP_temperature;BMP_pressure;BME280_temperature;BME280_humidity;BME280_pressure;Samples;Min_cycle;Max_cycle;Signal;HPM_P1;HPM_P2
2022/02/18 00:00:25;;;;;;;12.07;4.00;;;7.70;99.90;;;;;;4958754;28;20197;-51
2022/02/18 00:02:50;;;;;;;13.27;3.80;;;7.70;99.90;;;;;;4958166;28;20201;-54
2022/02/18 00:05:16;;;;;;;12.17;3.83;;;7.70;99.90;;;;;;4959036;28;20187;-56
2022/02/18 00:07:41;;;;;;;9.83;3.07;;;7.70;99.90;;;;;;4958801;29;20259;-53
2022/02/18 00:10:08;;;;;;;10.87;3.10;;;7.70;99.90;;;;;;4958049;28;20206;-55
2022/02/18 00:12:33;;;;;;;11.17;3.37;;;7.70;99.90;;;;;;4958585;29;20209;-57
2022/02/18 00:14:59;;;;;;;12.73;3.70;;;7.70;99.90;;;;;;4956986;29;20179;-56
2022/02/18 00:17:24;;;;;;;12.40;3.13;;;7.80;99.90;;;;;;4958009;29;20206;-56
2022/02/18 00:19:50;;;;;;;12.20;3.17;;;7.80;99.90;;;;;;4958586;28;20182;-53
2022/02/18 00:22:16;;;;;;;11.23;3.00;;;7.80;99.90;;;;;;4958910;28;20221;-54
2022/02/18 00:24:41;;;;;;;12.47;3.67;;;7.50;99.90;;;;;;4958855;29;20666;-57
2022/02/18 00:27:06;;;;;;;13.30;3.37;;;7.80;99.90;;;;;;4959097;29;20182;-52
2022/02/18 00:29:32;;;;;;;10.93;3.10;;;7.80;99.90;;;;;;4958308;28;20197;-54
2022/02/18 00:31:58;;;;;;;13.73;3.63;;;7.80;99.90;;;;;;4957976;29;20557;-54
2022/02/18 00:34:24;;;;;;;14.73;3.97;;;7.80;99.90;;;;;;4958340;28;20698;-55
2022/02/18 00:36:49;;;;;;;12.70;3.30;;;7.80;99.90;;;;;;4957562;28;20175;-52
2022/02/18 00:39:15;;;;;;;9.30;3.33;;;7.80;99.90;;;;;;4963951;28;20220;-54
2022/02/18 00:41:41;;;;;;;12.67;3.77;;;7.80;99.90;;;;;;4958014;28;20210;-53
2022/02/18 00:44:06;;;;;;;10.10;3.30;;;7.80;99.90;;;;;;4957822;29;20174;-56
2022/02/18 00:46:33;;;;;;;12.13;3.80;;;7.90;99.90;;;;;;4957125;29;20186;-54
2022/02/18 00:48:59;;;;;;;12.37;3.40;;;7.90;99.90;;;;;;4957227;29;20171;-56
2022/02/18 00:51:25;;;;;;;12.40;3.40;;;7.90;99.90;;;;;;4957500;29;20206;-58
2022/02/18 00:53:50;;;;;;;11.57;3.60;;;8.00;99.90;;;;;;4957953;28;20206;-53
2022/02/18 00:56:16;;;;;;;11.37;3.80;;;8.00;99.90;;;;;;4958051;28;20184;-55
2022/02/18 00:58:42;;;;;;;12.47;4.00;;;7.90;99.90;;;;;;4957846;29;20178;-58
2022/02/18 01:01:08;;;;;;;16.10;3.93;;;8.00;99.90;;;;;;4957691;29;20199;-58
2022/02/18 01:03:34;;;;;;;14.13;3.47;;;7.90;99.90;;;;;;4957863;28;20186;-54
2022/02/18 01:06:00;;;;;;;14.63;4.53;;;7.90;99.90;;;;;;4957835;28;20261;-57
2022/02/18 01:08:26;;;;;;;15.10;3.63;;;7.90;99.90;;;;;;4957252;28;20628;-57
2022/02/18 01:10:51;;;;;;;12.30;3.87;;;7.80;99.90;;;;;;4957924;29;20250;-54
2022/02/18 01:13:17;;;;;;;11.63;3.90;;;7.80;99.90;;;;;;4957827;29;20206;-57
2022/02/18 01:15:42;;;;;;;13.70;4.40;;;7.70;99.90;;;;;;4957100;28;20175;-55
2022/02/18 01:18:08;;;;;;;13.23;3.57;;;8.00;99.90;;;;;;4957833;29;20174;-52
2022/02/18 01:20:33;;;;;;;11.87;3.37;;;8.00;99.90;;;;;;4957258;29;20214;-54
2022/02/18 01:22:59;;;;;;;7.83;3.00;;;7.80;99.90;;;;;;4957339;29;20194;-56
2022/02/18 01:25:24;;;;;;;14.53;3.37;;;7.90;99.90;;;;;;4957165;29;20182;-53
2022/02/18 01:27:55;;;;;;;13.50;3.63;;;7.90;99.90;;;;;;4957467;28;20183;-53
2022/02/18 01:30:23;;;;;;;13.87;3.70;;;8.00;99.90;;;;;;4956691;29;20178;-53
2022/02/18 01:32:49;;;;;;;16.13;3.77;;;8.00;99.90;;;;;;4957468;28;20971;-53
2022/02/18 01:35:17;;;;;;;13.83;3.97;;;7.90;99.90;;;;;;4957233;29;20171;-53
2022/02/18 01:37:43;;;;;;;12.50;3.83;;;7.80;99.90;;;;;;4957449;28;20526;-55
2022/02/18 01:40:10;;;;;;;14.20;3.73;;;10.50;99.90;;;;;;4956659;28;20179;-52
2022/02/18 01:42:36;;;;;;;13.27;3.33;;;7.80;99.90;;;;;;4957184;28;20194;-54
2022/02/18 01:45:01;;;;;;;12.50;3.73;;;7.80;99.90;;;;;;4957178;28;20233;-54
2022/02/18 01:47:27;;;;;;;13.67;4.07;;;7.80;99.90;;;;;;4956634;28;20633;-51
2022/02/18 01:49:54;;;;;;;14.40;4.17;;;7.80;99.90;;;;;;4956440;29;20202;-53
2022/02/18 01:52:24;;;;;;;14.17;4.17;;;7.80;99.90;;;;;;4957108;28;20194;-53
2022/02/18 01:54:50;;;;;;;13.43;3.90;;;7.80;99.90;;;;;;4957143;28;20210;-53
2022/02/18 01:57:16;;;;;;;11.13;3.57;;;7.80;99.90;;;;;;4957293;29;20234;-54
2022/02/18 01:59:41;;;;;;;15.93;3.60;;;7.80;99.90;;;;;;4956706;29;20679;-57
2022/02/18 02:02:07;;;;;;;13.43;3.40;;;7.80;99.90;;;;;;4956946;28;20206;-58
2022/02/18 02:04:33;;;;;;;13.50;3.67;;;7.70;99.90;;;;;;4957885;29;20664;-55
2022/02/18 02:07:03;;;;;;;13.83;3.77;;;7.60;99.90;;;;;;4957401;28;20179;-56
2022/02/18 02:09:29;;;;;;;11.40;3.47;;;7.60;99.90;;;;;;4957194;28;20234;-53
2022/02/18 02:11:54;;;;;;;11.90;3.43;;;7.60;99.90;;;;;;4960531;28;20233;-58
2022/02/18 02:14:20;;;;;;;11.77;3.20;;;7.60;99.90;;;;;;4961231;29;20206;-59
2022/02/18 02:16:45;;;;;;;20.43;3.83;;;7.60;99.90;;;;;;4961354;28;20532;-56
2022/02/18 02:19:11;;;;;;;12.73;4.00;;;7.60;99.90;;;;;;4961236;29;20179;-57
2022/02/18 02:21:37;;;;;;;15.30;3.70;;;7.70;99.90;;;;;;4960653;29;20584;-57
2022/02/18 02:24:04;;;;;;;13.07;4.20;;;7.60;99.90;;;;;;4960432;28;20183;-56
2022/02/18 02:26:29;;;;;;;11.43;3.43;;;7.70;99.90;;;;;;4960999;29;20175;-53
2022/02/18 02:28:55;;;;;;;13.30;3.67;;;7.60;99.90;;;;;;4960723;28;20178;-54
2022/02/18 02:31:24;;;;;;;12.53;4.03;;;7.70;99.90;;;;;;4960986;29;20202;-55
2022/02/18 02:33:50;;;;;;;11.00;3.47;;;7.60;99.90;;;;;;4961517;28;20302;-55
2022/02/18 02:36:16;;;;;;;13.20;3.73;;;7.60;99.90;;;;;;4961131;29;20528;-56
2022/02/18 02:38:41;;;;;;;12.73;3.67;;;7.70;99.90;;;;;;4961338;29;20178;-56
2022/02/18 02:41:07;;;;;;;9.87;3.10;;;7.60;99.90;;;;;;4959760;29;20652;-56
2022/02/18 02:43:32;;;;;;;12.57;3.83;;;7.60;99.90;;;;;;4960500;28;20243;-56
2022/02/18 02:45:58;;;;;;;11.50;3.20;;;7.50;99.90;;;;;;4960148;29;20178;-56
2022/02/18 02:48:23;;;;;;;11.27;3.80;;;7.40;99.90;;;;;;4960393;29;20507;-54
2022/02/18 02:50:49;;;;;;;15.43;3.30;;;7.30;99.90;;;;;;4959765;29;20226;-53
2022/02/18 02:53:15;;;;;;;14.93;4.10;;;7.20;99.90;;;;;;4959698;28;20202;-53
2022/02/18 02:55:40;;;;;;;8.13;3.27;;;7.10;99.90;;;;;;4961484;28;20591;-53
2022/02/18 02:58:06;;;;;;;19.30;4.27;;;7.30;99.90;;;;;;4959752;28;20202;-53
2022/02/18 03:00:31;;;;;;;17.60;4.40;;;7.50;99.90;;;;;;4959430;29;20271;-56
2022/02/18 03:02:57;;;;;;;13.43;3.77;;;7.20;99.90;;;;;;4959828;28;20225;-54
2022/02/18 03:05:23;;;;;;;9.77;3.10;;;7.20;99.90;;;;;;4959322;29;20249;-50
2022/02/18 03:07:48;;;;;;;12.93;3.30;;;7.20;99.90;;;;;;4959639;28;20178;-52
2022/02/18 03:10:14;;;;;;;10.73;3.53;;;7.10;99.90;;;;;;4959362;29;20182;-56
2022/02/18 03:12:40;;;;;;;12.43;4.37;;;7.20;99.90;;;;;;4959217;29;20201;-54
2022/02/18 03:15:06;;;;;;;14.07;3.73;;;7.20;99.90;;;;;;4959128;28;20182;-53
2022/02/18 03:17:32;;;;;;;13.60;3.50;;;7.20;99.90;;;;;;4959652;28;20182;-55
2022/02/18 03:19:58;;;;;;;12.10;3.67;;;7.20;99.90;;;;;;4959398;28;20190;-53
2022/02/18 03:22:23;;;;;;;14.53;3.57;;;7.10;99.90;;;;;;4959165;28;20615;-53
2022/02/18 03:24:49;;;;;;;16.27;4.27;;;7.10;99.90;;;;;;4958762;28;20765;-53
2022/02/18 03:27:14;;;;;;;13.57;3.63;;;7.10;99.90;;;;;;4959225;29;20179;-53
2022/02/18 03:29:40;;;;;;;10.37;3.60;;;7.30;99.90;;;;;;4959124;28;20659;-52
2022/02/18 03:32:06;;;;;;;13.30;3.47;;;7.20;99.90;;;;;;4958783;29;20679;-52
2022/02/18 03:34:34;;;;;;;13.87;4.53;;;;;;;;;;4958647;28;20568;-54
2022/02/18 03:37:00;;;;;;;12.43;3.30;;;7.30;99.90;;;;;;4959242;28;20167;-55
2022/02/18 03:39:26;;;;;;;9.40;3.23;;;7.40;99.90;;;;;;4958946;28;20175;-55
2022/02/18 03:41:52;;;;;;;10.17;3.50;;;7.40;99.90;;;;;;4959135;28;20330;-55
2022/02/18 03:44:18;;;;;;;15.43;3.60;;;7.50;99.90;;;;;;4959116;29;20728;-54
2022/02/18 03:46:44;;;;;;;15.40;4.37;;;7.50;99.90;;;;;;4959097;28;20183;-57
2022/02/18 03:49:09;;;;;;;13.20;4.00;;;7.50;99.90;;;;;;4959108;29;20181;-53
2022/02/18 03:51:35;;;;;;;10.43;3.63;;;7.40;99.90;;;;;;4958809;29;20198;-52
2022/02/18 03:54:00;;;;;;;10.93;3.80;;;7.30;99.90;;;;;;4958623;28;20205;-55
2022/02/18 03:56:26;;;;;;;16.60;4.07;;;7.20;99.90;;;;;;4958565;28;20171;-53
2022/02/18 03:58:51;;;;;;;12.77;3.57;;;7.10;99.90;;;;;;4958675;28;20233;-53
2022/02/18 04:01:17;;;;;;;16.27;3.80;;;7.10;99.90;;;;;;4958979;29;20225;-54
2022/02/18 04:03:43;;;;;;;12.17;3.27;;;7.10;99.90;;;;;;4958478;28;20185;-55
2022/02/18 04:06:10;;;;;;;16.43;4.40;;;7.10;99.90;;;;;;4959242;28;20174;-55
2022/02/18 04:08:35;;;;;;;11.13;3.87;;;7.20;99.90;;;;;;4958427;29;20170;-58
2022/02/18 04:11:01;;;;;;;15.73;4.47;;;7.20;99.90;;;;;;4958858;28;20679;-55
2022/02/18 04:13:26;;;;;;;12.87;3.70;;;7.20;99.90;;;;;;4958382;29;20210;-55
2022/02/18 04:15:52;;;;;;;14.57;4.00;;;7.30;99.90;;;;;;4958514;29;20166;-54
2022/02/18 04:18:17;;;;;;;13.57;3.80;;;7.30;99.90;;;;;;4958330;29;20193;-53
2022/02/18 04:20:43;;;;;;;11.83;4.40;;;7.40;99.90;;;;;;4957901;29;20173;-52
2022/02/18 04:23:08;;;;;;;10.87;3.40;;;7.30;99.90;;;;;;5044581;23;20232;-60
2022/02/18 04:25:34;;;;;;;11.67;4.00;;;7.20;99.90;;;;;;5014818;28;20208;-56
2022/02/18 04:28:02;;;;;;;13.10;3.50;;;7.30;99.90;;;;;;5015457;28;20519;-56
2022/02/18 04:30:28;;;;;;;11.73;3.20;;;7.20;99.90;;;;;;5016147;28;20188;-58
2022/02/18 04:32:54;;;;;;;11.27;3.20;;;7.10;99.90;;;;;;5014193;28;20204;-53
2022/02/18 04:35:20;;;;;;;9.90;3.20;;;7.10;99.90;;;;;;5015165;28;20188;-56
2022/02/18 04:37:46;;;;;;;14.33;3.80;;;7.00;99.90;;;;;;5015802;28;20180;-57
2022/02/18 04:40:13;;;;;;;13.40;3.90;;;6.90;99.90;;;;;;5014636;28;20282;-56
2022/02/18 04:42:39;;;;;;;15.10;4.03;;;6.60;99.90;;;;;;5015700;28;20200;-55
2022/02/18 04:45:05;;;;;;;12.47;3.63;;;6.60;99.90;;;;;;5014922;28;20571;-55
2022/02/18 04:47:31;;;;;;;13.00;3.57;;;6.80;99.90;;;;;;5015673;28;20190;-54
2022/02/18 04:49:56;;;;;;;11.40;3.67;;;6.90;99.90;;;;;;5013818;28;20180;-56
2022/02/18 04:52:22;;;;;;;13.03;3.80;;;6.80;99.90;;;;;;5015229;28;20270;-57
2022/02/18 04:54:47;;;;;;;12.53;3.83;;;6.70;99.90;;;;;;5014234;28;20204;-56
2022/02/18 04:57:13;;;;;;;11.47;3.60;;;6.90;99.90;;;;;;5014151;28;20210;-57
2022/02/18 04:59:39;;;;;;;17.07;4.30;;;6.90;99.90;;;;;;5015252;28;20181;-59
2022/02/18 05:02:05;;;;;;;18.07;3.97;;;6.90;99.90;;;;;;5014709;28;20569;-56
2022/02/18 05:04:31;;;;;;;11.33;3.20;;;7.20;99.90;;;;;;5015302;28;20278;-55
2022/02/18 05:06:57;;;;;;;14.10;3.53;;;6.90;99.90;;;;;;5013717;28;20227;-57
2022/02/18 05:09:22;;;;;;;12.13;3.53;;;6.90;99.90;;;;;;5014668;28;20180;-57
2022/02/18 05:11:49;;;;;;;11.73;3.90;;;6.80;99.90;;;;;;5015291;28;20208;-55
2022/02/18 05:14:18;;;;;;;12.47;3.40;;;7.00;99.90;;;;;;5015745;28;20207;-57
2022/02/18 05:16:44;;;;;;;14.23;4.00;;;;;;;;;;5014794;28;20175;-57
2022/02/18 05:19:10;;;;;;;15.37;4.00;;;6.80;99.90;;;;;;5015599;28;20244;-54
2022/02/18 05:21:39;;;;;;;11.40;3.47;;;7.00;99.90;;;;;;5015422;28;20219;-51
2022/02/18 05:24:06;;;;;;;12.20;3.30;;;6.90;99.90;;;;;;5015410;28;20176;-59
2022/02/18 05:26:33;;;;;;;11.07;3.57;;;6.90;99.90;;;;;;5014917;28;20668;-56
2022/02/18 05:28:58;;;;;;;13.20;3.70;;;6.90;99.90;;;;;;5015143;28;20188;-56
2022/02/18 05:31:24;;;;;;;13.03;3.90;;;7.30;99.90;;;;;;5014579;28;20255;-56
2022/02/18 05:33:50;;;;;;;17.00;4.30;;;7.00;99.90;;;;;;5014299;28;20689;-54
2022/02/18 05:36:15;;;;;;;14.27;3.57;;;7.00;99.90;;;;;;5014934;28;20216;-57
2022/02/18 05:38:43;;;;;;;11.87;3.30;;;7.10;99.90;;;;;;5014956;28;20171;-55
2022/02/18 05:41:10;;;;;;;11.07;3.40;;;7.10;99.90;;;;;;5014568;28;20207;-54
2022/02/18 05:43:35;;;;;;;13.80;3.73;;;7.10;99.90;;;;;;5014940;28;20195;-57
2022/02/18 05:46:01;;;;;;;14.20;4.10;;;7.00;99.90;;;;;;5016638;28;20169;-55
2022/02/18 05:48:27;;;;;;;9.90;3.83;;;7.00;99.90;;;;;;5018693;28;20641;-54
2022/02/18 05:50:52;;;;;;;9.67;3.37;;;7.10;99.90;;;;;;5019091;28;20223;-55
2022/02/18 05:53:18;;;;;;;11.90;3.83;;;7.10;99.90;;;;;;5019343;28;20547;-54
2022/02/18 05:55:44;;;;;;;12.13;4.00;;;7.20;99.90;;;;;;5018423;28;20171;-57
2022/02/18 05:58:09;;;;;;;13.80;4.10;;;7.00;99.90;;;;;;5018810;28;20211;-57
2022/02/18 06:00:35;;;;;;;12.20;3.63;;;7.20;99.90;;;;;;5018542;28;20180;-56
2022/02/18 06:03:00;;;;;;;14.63;3.77;;;;;;;;;;5018606;28;20196;-55
2022/02/18 06:05:26;;;;;;;12.33;3.97;;;7.20;99.90;;;;;;5018585;28;20204;-57
2022/02/18 06:07:52;;;;;;;13.00;3.37;;;7.30;99.90;;;;;;5018289;28;20180;-56
2022/02/18 06:10:17;;;;;;;12.13;3.77;;;7.30;99.90;;;;;;5014403;28;20184;-56
2022/02/18 06:12:43;;;;;;;10.53;3.70;;;7.30;99.90;;;;;;5016640;28;20232;-56
2022/02/18 06:15:08;;;;;;;9.73;3.37;;;7.30;99.90;;;;;;5017093;28;20181;-58
2022/02/18 06:17:38;;;;;;;12.13;3.70;;;7.30;99.90;;;;;;5009517;28;20195;-54
2022/02/18 06:20:05;;;;;;;11.60;3.40;;;7.40;99.90;;;;;;5017434;28;20692;-59
2022/02/18 06:22:31;;;;;;;13.53;3.77;;;7.40;99.90;;;;;;5017299;28;20204;-53
2022/02/18 06:24:56;;;;;;;10.20;3.20;;;7.30;99.90;;;;;;5018328;28;20172;-57
2022/02/18 06:27:22;;;;;;;8.37;2.67;;;7.40;99.90;;;;;;5017445;28;20207;-56
2022/02/18 06:29:49;;;;;;;12.93;4.00;;;7.40;99.90;;;;;;5011816;28;20672;-56
2022/02/18 06:32:15;;;;;;;12.50;3.10;;;7.40;99.90;;;;;;5017951;28;20215;-56
2022/02/18 06:34:40;;;;;;;10.57;3.90;;;7.50;99.90;;;;;;5017068;28;20204;-54
2022/02/18 06:37:06;;;;;;;10.10;3.20;;;7.50;99.90;;;;;;5017126;28;20169;-52
2022/02/18 06:39:35;;;;;;;11.53;3.67;;;7.40;99.90;;;;;;5017383;28;20591;-55
2022/02/18 06:42:01;;;;;;;11.50;3.67;;;7.30;99.90;;;;;;5017937;28;20201;-56
2022/02/18 06:44:27;;;;;;;12.30;3.50;;;7.40;99.90;;;;;;5016961;28;20600;-53
2022/02/18 06:46:52;;;;;;;11.93;3.63;;;7.50;99.90;;;;;;5013707;28;20192;-60
2022/02/18 06:49:18;;;;;;;11.30;3.27;;;7.50;99.90;;;;;;5015354;28;20300;-56
2022/02/18 06:51:44;;;;;;;9.90;3.30;;;7.50;99.90;;;;;;5002945;28;20622;-54
2022/02/18 06:54:09;;;;;;;10.07;3.80;;;7.60;99.90;;;;;;5007725;28;20240;-54
2022/02/18 06:56:35;;;;;;;8.33;2.80;;;7.60;99.90;;;;;;5005286;28;20185;-58
2022/02/18 06:59:00;;;;;;;11.77;3.30;;;7.80;99.90;;;;;;5005849;28;20256;-54
2022/02/18 07:01:26;;;;;;;9.00;3.00;;;7.70;99.90;;;;;;5006236;28;20642;-55
2022/02/18 07:03:52;;;;;;;13.13;3.70;;;7.70;99.90;;;;;;5006040;28;20177;-56
2022/02/18 07:06:17;;;;;;;9.47;3.20;;;7.70;99.90;;;;;;5007069;28;20186;-55
2022/02/18 07:08:43;;;;;;;12.23;3.60;;;7.70;99.90;;;;;;5010862;28;20207;-56
2022/02/18 07:11:08;;;;;;;11.40;3.13;;;7.60;99.90;;;;;;5008537;28;20180;-54
2022/02/18 07:13:34;;;;;;;8.27;2.90;;;7.60;99.90;;;;;;5009286;28;20474;-53
2022/02/18 07:15:59;;;;;;;10.63;3.37;;;7.70;99.90;;;;;;5007960;28;20200;-54
2022/02/18 07:18:25;;;;;;;10.27;3.57;;;7.70;99.90;;;;;;5005662;28;20259;-58
2022/02/18 07:20:51;;;;;;;10.10;2.97;;;7.80;99.90;;;;;;5006763;28;20170;-56
2022/02/18 07:23:17;;;;;;;9.43;3.13;;;7.90;99.90;;;;;;5012083;28;20294;-55
2022/02/18 07:25:44;;;;;;;12.17;3.23;;;8.00;99.90;;;;;;5007076;28;20180;-53
2022/02/18 07:28:09;;;;;;;11.97;3.70;;;8.10;99.90;;;;;;5009927;28;20236;-57
2022/02/18 07:30:35;;;;;;;11.63;3.43;;;8.20;99.90;;;;;;5006519;28;20212;-51
2022/02/18 07:33:01;;;;;;;8.97;3.43;;;8.40;99.90;;;;;;5009270;28;20208;-55
2022/02/18 07:35:32;;;;;;;10.40;3.70;;;8.60;99.90;;;;;;5006932;28;20176;-59
2022/02/18 07:37:59;;;;;;;9.87;3.20;;;8.70;99.90;;;;;;5006769;28;20169;-53
2022/02/18 07:40:25;;;;;;;8.97;3.23;;;;;;;;;;5005709;28;20272;-56
2022/02/18 07:42:50;;;;;;;11.70;3.10;;;8.60;99.90;;;;;;5005642;28;20219;-56
2022/02/18 07:45:16;;;;;;;7.90;3.07;;;8.60;99.90;;;;;;5006099;28;20295;-54
2022/02/18 07:47:42;;;;;;;10.23;3.73;;;8.60;99.90;;;;;;5004475;28;20177;-54
2022/02/18 07:50:08;;;;;;;9.47;3.30;;;8.70;99.90;;;;;;5005266;28;20239;-58
2022/02/18 07:52:36;;;;;;;14.07;4.00;;;8.80;99.90;;;;;;5005766;28;20271;-57
2022/02/18 07:55:01;;;;;;;10.90;3.27;;;9.00;99.90;;;;;;5004287;28;20663;-59
2022/02/18 07:57:27;;;;;;;10.10;3.40;;;9.10;99.90;;;;;;5006246;28;20177;-56
2022/02/18 07:59:53;;;;;;;11.97;3.63;;;9.10;99.90;;;;;;5005643;28;20173;-52
2022/02/18 08:02:18;;;;;;;11.07;3.40;;;9.20;99.90;;;;;;5004610;28;20197;-53
2022/02/18 08:04:44;;;;;;;10.17;3.20;;;9.40;99.90;;;;;;5007563;28;20184;-59
2022/02/18 08:07:10;;;;;;;9.13;3.53;;;9.60;99.90;;;;;;5005633;28;20575;-53
2022/02/18 08:09:36;;;;;;;9.60;3.70;;;9.70;99.90;;;;;;5004267;28;20264;-54
2022/02/18 08:12:02;;;;;;;10.93;3.47;;;9.80;99.90;;;;;;5006627;28;20275;-55
2022/02/18 08:14:27;;;;;;;10.57;3.40;;;10.00;99.90;;;;;;5004583;28;20240;-56
2022/02/18 08:16:53;;;;;;;9.27;2.93;;;10.20;99.90;;;;;;5005517;28;20172;-56
2022/02/18 08:19:20;;;;;;;7.67;3.30;;;10.50;99.90;;;;;;5006613;28;20181;-53
2022/02/18 08:21:47;;;;;;;6.43;2.90;;;10.90;99.90;;;;;;5004757;28;20240;-51
2022/02/18 08:24:17;;;;;;;10.40;3.50;;;11.30;99.90;;;;;;5001733;28;20177;-54
2022/02/18 08:26:47;;;;;;;7.20;2.90;;;11.50;99.90;;;;;;4994386;28;20173;-54
2022/02/18 08:29:14;;;;;;;10.97;3.90;;;11.60;99.90;;;;;;4996054;28;20728;-56
2022/02/18 08:31:41;;;;;;;11.97;3.60;;;12.10;99.90;;;;;;4996219;28;20184;-55
2022/02/18 08:34:06;;;;;;;9.47;3.10;;;12.40;99.90;;;;;;4994432;28;20677;-58
2022/02/18 08:36:34;;;;;;;8.67;3.23;;;13.70;99.90;;;;;;4994678;28;20444;-58
2022/02/18 08:38:59;;;;;;;7.83;3.13;;;15.20;99.90;;;;;;5000748;28;20643;-56
2022/02/18 08:41:25;;;;;;;7.93;3.00;;;15.60;99.90;;;;;;5013872;28;20184;-54
2022/02/18 08:43:53;;;;;;;7.10;2.73;;;15.60;99.90;;;;;;5013196;28;20177;-55
2022/02/18 08:46:19;;;;;;;7.93;3.37;;;15.10;99.90;;;;;;5014037;28;20646;-56
2022/02/18 08:48:44;;;;;;;7.60;3.03;;;14.60;99.90;;;;;;5014398;28;20176;-61
2022/02/18 08:51:10;;;;;;;7.70;3.23;;;14.20;99.90;;;;;;5014095;28;20541;-54
2022/02/18 08:53:37;;;;;;;9.30;3.37;;;14.00;99.90;;;;;;5013776;28;20246;-54
2022/02/18 08:56:04;;;;;;;8.80;3.23;;;13.70;99.90;;;;;;5013811;28;20261;-57
2022/02/18 08:58:30;;;;;;;8.87;3.10;;;13.40;99.90;;;;;;5014105;28;20302;-57
2022/02/18 09:00:55;;;;;;;8.27;3.50;;;12.90;99.90;;;;;;5014053;28;20183;-59
2022/02/18 09:03:21;;;;;;;13.07;3.50;;;12.60;99.90;;;;;;5014130;28;20235;-54
2022/02/18 09:05:46;;;;;;;14.10;3.67;;;12.30;99.90;;;;;;5013190;28;20169;-56
2022/02/18 09:08:13;;;;;;;10.27;3.60;;;12.00;99.90;;;;;;5014102;28;20172;-58
2022/02/18 09:10:40;;;;;;;8.97;3.03;;;11.80;99.90;;;;;;5013619;28;20179;-52
2022/02/18 09:13:05;;;;;;;9.67;3.70;;;11.70;99.90;;;;;;5013641;28;20291;-55
2022/02/18 09:15:31;;;;;;;11.63;3.43;;;11.50;99.90;;;;;;5013518;28;20650;-58
2022/02/18 09:17:56;;;;;;;10.20;3.70;;;11.20;99.90;;;;;;5013276;28;20168;-57
2022/02/18 09:20:22;;;;;;;10.90;3.27;;;11.10;99.90;;;;;;5015382;28;20302;-57
2022/02/18 09:22:48;;;;;;;7.97;3.47;;;11.10;99.90;;;;;;5016731;28;20219;-54
2022/02/18 09:25:13;;;;;;;11.00;3.97;;;11.00;99.90;;;;;;5019058;28;20173;-57
2022/02/18 09:27:39;;;;;;;11.27;3.67;;;11.00;99.90;;;;;;5018891;28;20203;-54
2022/02/18 09:30:07;;;;;;;11.67;3.40;;;11.00;99.90;;;;;;5018520;28;20177;-54
2022/02/18 09:32:33;;;;;;;9.43;3.03;;;11.00;99.90;;;;;;5013111;28;20200;-53
2022/02/18 09:35:01;;;;;;;11.30;3.80;;;11.10;99.90;;;;;;5005718;28;20199;-56
2022/02/18 09:37:27;;;;;;;8.37;3.43;;;14.40;99.90;;;;;;5008658;28;20165;-55
2022/02/18 09:39:53;;;;;;;11.13;3.00;;;;;;;;;;5013290;28;20230;-54
2022/02/18 09:42:19;;;;;;;12.13;3.83;;;11.30;99.90;;;;;;5017128;28;20203;-57
2022/02/18 09:44:45;;;;;;;7.80;3.23;;;11.10;99.90;;;;;;5011597;28;20261;-57
2022/02/18 09:47:14;;;;;;;11.47;3.40;;;11.10;99.90;;;;;;5011188;28;20665;-56
2022/02/18 09:49:42;;;;;;;12.50;3.70;;;11.30;99.90;;;;;;5011219;28;20621;-53
2022/02/18 09:52:10;;;;;;;10.60;4.03;;;11.40;99.90;;;;;;5018251;28;20188;-55
2022/02/18 09:54:35;;;;;;;9.33;3.20;;;11.20;99.90;;;;;;5017388;28;20193;-54
2022/02/18 09:57:01;;;;;;;9.80;3.33;;;11.10;99.90;;;;;;5026257;28;20168;-54
2022/02/18 09:59:28;;;;;;;8.47;3.53;;;11.20;99.90;;;;;;5018308;28;20192;-53
2022/02/18 10:01:54;;;;;;;9.00;3.17;;;11.20;99.90;;;;;;5017894;28;20339;-56
2022/02/18 10:04:20;;;;;;;11.67;3.50;;;11.30;99.90;;;;;;5017254;28;20173;-56
2022/02/18 10:06:46;;;;;;;8.07;3.67;;;11.40;99.90;;;;;;5016321;28;20523;-59
2022/02/18 10:09:12;;;;;;;8.37;3.20;;;11.40;99.90;;;;;;5016735;28;20176;-55
2022/02/18 10:11:59;;;;;;;7.93;3.00;;;11.90;99.90;;;;;;5013421;28;20188;-56
2022/02/18 10:14:26;;;;;;;7.43;3.07;;;11.70;99.90;;;;;;5012494;28;20766;-54
2022/02/18 10:16:51;;;;;;;12.47;3.80;;;11.70;99.90;;;;;;5014095;28;20174;-57
2022/02/18 10:19:21;;;;;;;11.03;3.07;;;11.60;99.90;;;;;;5008873;28;20657;-52
2022/02/18 10:22:00;;;;;;;10.53;3.10;;;12.00;99.90;;;;;;5007151;28;20235;-55
2022/02/18 10:24:37;;;;;;;10.47;3.47;;;11.30;99.90;;;;;;4998662;28;20214;-54
2022/02/18 10:27:05;;;;;;;11.33;3.53;;;11.20;99.90;;;;;;5006134;28;20183;-56
2022/02/18 10:29:31;;;;;;;10.70;3.57;;;11.00;99.90;;;;;;5018364;28;20195;-57
2022/02/18 10:32:14;;;;;;;9.63;3.50;;;10.70;99.90;;;;;;5020257;28;20208;-55
2022/02/18 10:34:58;;;;;;;11.50;3.63;;;10.60;99.90;;;;;;5002642;28;20311;-53
2022/02/18 10:37:27;;;;;;;9.30;3.63;;;10.80;99.90;;;;;;5017263;28;20180;-55
2022/02/18 10:40:14;;;;;;;10.13;3.30;;;11.00;99.90;;;;;;5011172;28;20173;-53
2022/02/18 10:42:40;;;;;;;9.13;3.00;;;11.10;99.90;;;;;;5008341;28;20189;-59
2022/02/18 10:45:15;;;;;;;9.50;3.27;;;11.10;99.90;;;;;;5014089;28;20172;-56
2022/02/18 10:47:42;;;;;;;10.53;3.40;;;11.10;99.90;;;;;;5017397;28;20187;-57
2022/02/18 10:50:15;;;;;;;10.33;3.23;;;11.20;99.90;;;;;;5013269;28;20228;-56
2022/02/18 10:52:41;;;;;;;8.90;3.40;;;11.40;99.90;;;;;;5016966;28;20197;-54
2022/02/18 10:55:08;;;;;;;9.57;3.30;;;11.50;99.90;;;;;;5016770;28;20237;-59
2022/02/18 10:57:34;;;;;;;9.57;3.70;;;;;;;;;;5016310;28;20176;-59
2022/02/18 11:00:13;;;;;;;12.80;3.63;;;11.80;99.90;;;;;;5015949;28;20176;-55
2022/02/18 11:02:50;;;;;;;10.93;4.00;;;11.80;99.90;;;;;;5017518;28;20224;-57
2022/02/18 11:05:42;;;;;;;12.30;3.80;;;11.60;99.90;;;;;;5017321;28;20188;-57
2022/02/18 11:08:08;;;;;;;12.97;3.97;;;11.60;99.90;;;;;;5024844;28;20262;-56
2022/02/18 11:10:38;;;;;;;13.20;4.00;;;11.30;99.90;;;;;;5014998;28;20176;-56
2022/02/18 11:13:04;;;;;;;12.07;3.97;;;11.20;99.90;;;;;;5009512;28;20197;-58
2022/02/18 11:15:31;;;;;;;11.97;3.87;;;11.20;99.90;;;;;;5010827;28;20168;-58
2022/02/18 11:17:58;;;;;;;11.63;3.60;;;11.30;99.90;;;;;;5012464;28;20173;-57
2022/02/18 11:20:25;;;;;;;9.00;3.77;;;11.50;99.90;;;;;;5013565;28;20208;-57
2022/02/18 11:22:55;;;;;;;10.60;3.70;;;11.50;99.90;;;;;;5014915;28;20212;-54
2022/02/18 11:25:22;;;;;;;10.60;4.00;;;11.50;99.90;;;;;;5025030;28;20176;-58
2022/02/18 11:27:48;;;;;;;12.20;3.87;;;;;;;;;;5025281;28;20728;-56
2022/02/18 11:30:14;;;;;;;8.63;3.33;;;11.70;99.90;;;;;;5017724;28;20203;-52
2022/02/18 11:33:04;;;;;;;12.53;4.17;;;11.70;99.90;;;;;;5013809;28;20192;-53
2022/02/18 11:35:41;;;;;;;13.93;3.97;;;11.50;99.90;;;;;;5022974;28;20542;-54
2022/02/18 11:38:07;;;;;;;10.70;3.70;;;11.30;99.90;;;;;;5030205;28;20187;-54
2022/02/18 11:40:41;;;;;;;7.97;3.00;;;11.10;99.90;;;;;;5016813;28;20200;-53
2022/02/18 11:43:25;;;;;;;11.60;3.73;;;11.10;99.90;;;;;;5025428;28;20559;-52
2022/02/18 11:45:55;;;;;;;11.77;3.90;;;11.10;99.90;;;;;;5014943;28;20175;-53
2022/02/18 11:48:43;;;;;;;14.07;3.97;;;11.20;99.90;;;;;;5024451;28;20192;-56
2022/02/18 11:51:23;;;;;;;11.47;3.63;;;11.20;99.90;;;;;;5032344;28;20164;-59
2022/02/18 11:53:53;;;;;;;10.93;3.73;;;11.20;99.90;;;;;;5014983;28;20278;-54
2022/02/18 11:56:46;;;;;;;9.57;3.70;;;11.10;99.90;;;;;;5014450;28;20175;-60
2022/02/18 11:59:12;;;;;;;13.70;4.63;;;11.30;99.90;;;;;;5014378;28;20187;-57
2022/02/18 12:02:04;;;;;;;8.90;3.73;;;11.60;99.90;;;;;;5014584;28;20247;-56
2022/02/18 12:04:31;;;;;;;9.80;3.53;;;11.50;99.90;;;;;;5014173;28;20177;-57
2022/02/18 12:07:26;;;;;;;10.53;3.33;;;11.60;99.90;;;;;;5014655;28;20543;-54
2022/02/18 12:10:02;;;;;;;11.37;3.63;;;11.50;99.90;;;;;;5014598;28;20181;-54
2022/02/18 12:12:32;;;;;;;8.07;3.43;;;11.60;99.90;;;;;;5014347;28;20192;-54
2022/02/18 12:15:13;;;;;;;9.87;3.70;;;11.70;99.90;;;;;;5014317;28;20227;-55
2022/02/18 12:17:44;;;;;;;9.17;3.87;;;11.80;99.90;;;;;;5014392;28;20582;-54
2022/02/18 12:20:11;;;;;;;11.37;4.03;;;11.90;99.90;;;;;;5014629;28;20233;-52
2022/02/18 12:22:38;;;;;;;10.47;3.53;;;12.00;99.90;;;;;;5014056;28;20207;-54
2022/02/18 12:25:28;;;;;;;10.53;3.80;;;12.10;99.90;;;;;;5013865;28;20704;-53
2022/02/18 12:28:14;;;;;;;9.30;3.40;;;12.40;99.90;;;;;;4994242;28;20265;-54
2022/02/18 12:30:45;;;;;;;8.60;3.83;;;13.00;99.90;;;;;;4994642;28;20183;-53
2022/02/18 12:33:11;;;;;;;8.80;3.43;;;13.30;99.90;;;;;;4994197;28;20211;-56
2022/02/18 12:35:37;;;;;;;9.37;3.47;;;13.60;99.90;;;;;;4994160;28;20180;-55
2022/02/18 12:38:04;;;;;;;10.47;3.80;;;14.20;99.90;;;;;;4994022;28;20193;-57
2022/02/18 12:40:33;;;;;;;6.50;2.73;;;15.50;99.90;;;;;;4994105;28;20776;-53
2022/02/18 12:43:00;;;;;;;7.47;3.03;;;17.10;99.90;;;;;;4994402;28;20667;-51
2022/02/18 12:45:45;;;;;;;8.10;3.53;;;18.10;99.90;;;;;;4993277;28;20532;-51
2022/02/18 12:48:11;;;;;;;9.70;2.50;;;18.30;99.90;;;;;;4994107;28;20162;-56